Time;durP1;ratioP1;P1;durP2;ratioP2;P2;SDS_P1;SDS_P2;PMS_P1;PMS_P2;Temp;Humidity;BMP_temperature;BMP_pressure;BME280_temperature;BME280_humidity;BME280_pressure;Samples;Min_cycle;Max_cycle;Signal;HPM_P1;HPM_P2
2021/06/09 00:00:24;;;;;;;0.00;0.00;;;;;;;10.40;100.00;93560.28;2096167;28;20139;-88
2021/06/09 00:01:27;;;;;;;0.10;0.10;;;;;;;10.37;100.00;93558.44;2104566;28;20024;-87
2021/06/09 00:02:28;;;;;;;0.10;0.10;;;;;;;10.37;100.00;93565.69;2096288;28;20027;-85
2021/06/09 00:03:29;;;;;;;0.00;0.00;;;;;;;10.33;100.00;93571.06;2087755;28;20021;-89
2021/06/09 00:04:30;;;;;;;0.00;0.00;;;;;;;10.33;100.00;93573.75;2104633;28;20443;-88
2021/06/09 00:05:31;;;;;;;0.03;0.03;;;;;;;10.36;100.00;93572.16;2111748;28;20051;-86
2021/06/09 00:06:32;;;;;;;0.40;0.13;;;;;;;10.33;100.00;93573.75;2113000;28;20031;-83
2021/06/09 00:07:33;;;;;;;0.03;0.00;;;;;;;10.32;100.00;93573.00;2104082;28;20024;-85
2021/06/09 00:08:33;;;;;;;0.10;0.10;;;;;;;10.33;100.00;93569.16;2095781;28;20021;-86
2021/06/09 00:09:34;;;;;;;0.10;0.10;;;;;;;10.34;100.00;93569.91;2096277;28;20021;-87
2021/06/09 00:10:35;;;;;;;0.10;0.00;;;;;;;10.34;100.00;93569.91;2113033;28;20073;-85
2021/06/09 00:11:35;;;;;;;0.10;0.10;;;;;;;10.42;100.00;93565.22;2121601;27;20305;-86
2021/06/09 00:12:36;;;;;;;0.08;0.00;;;;;;;10.45;100.00;93565.19;2112564;28;20119;-86
2021/06/09 00:13:37;;;;;;;0.00;0.00;;;;;;;10.38;100.00;93567.94;2113103;28;20027;-88
2021/06/09 00:14:38;;;;;;;0.00;0.00;;;;;;;10.37;100.00;93563.75;2104127;28;20496;-86
2021/06/09 00:15:39;;;;;;;0.10;0.10;;;;;;;10.42;100.00;93565.22;2095891;28;20028;-86
2021/06/09 00:16:40;;;;;;;0.03;0.03;;;;;;;10.44;100.00;93562.91;2104458;28;20012;-88
2021/06/09 00:17:41;;;;;;;0.03;0.03;;;;;;;10.41;100.00;93561.81;2096145;28;21070;-83
2021/06/09 00:18:42;;;;;;;0.10;0.10;;;;;;;10.43;100.00;93558.72;2087424;28;20021;-89
2021/06/09 00:19:43;;;;;;;0.10;0.10;;;;;;;10.44;100.00;93557.56;2096131;28;20107;-86
2021/06/09 00:20:44;;;;;;;0.10;0.10;;;;;;;10.40;100.00;93554.16;2096096;28;20242;-86
2021/06/09 00:21:47;;;;;;;0.43;0.10;;;;;;;10.50;100.00;93564.72;2096180;28;20097;-89
2021/06/09 00:22:49;;;;;;;0.10;0.10;;;;;;;10.51;100.00;93554.78;2104775;28;20543;-86
2021/06/09 00:23:49;;;;;;;0.00;0.00;;;;;;;10.45;100.00;93554.50;2104265;28;20020;-87
2021/06/09 00:24:50;;;;;;;0.10;0.10;;;;;;;10.46;100.00;93555.25;2105116;28;20082;-86
2021/06/09 00:25:53;;;;;;;0.10;0.10;;;;;;;10.41;100.00;93553.03;2103894;28;20032;-84
2021/06/09 00:26:54;;;;;;;0.00;0.00;;;;;;;10.43;100.00;93548.03;2096401;28;20032;-89
2021/06/09 00:27:56;;;;;;;0.05;0.05;;;;;;;10.45;100.00;93541.13;2096057;28;20071;-84
2021/06/09 00:28:57;;;;;;;0.10;0.10;;;;;;;10.46;100.00;93547.22;2101845;28;20040;-89
2021/06/09 00:29:57;;;;;;;0.00;0.00;;;;;;;10.51;100.00;93544.09;2095826;28;20035;-88
2021/06/09 00:30:58;;;;;;;0.10;0.10;;;;;;;10.49;100.00;93543.72;2104366;28;20055;-88
2021/06/09 00:31:59;;;;;;;0.00;0.00;;;;;;;10.53;100.00;93550.53;2104590;28;20132;-86
2021/06/09 00:33:01;;;;;;;0.00;0.00;;;;;;;10.56;100.00;93548.97;2096004;28;20063;-83
2021/06/09 00:34:02;;;;;;;0.10;0.10;;;;;;;10.49;100.00;93547.19;2092212;28;20470;-86
2021/06/09 00:35:04;;;;;;;0.10;0.10;;;;;;;10.46;100.00;93547.22;2103968;28;20081;-85
2021/06/09 00:36:05;;;;;;;0.22;0.10;;;;;;;10.57;100.00;93548.56;2096171;28;20314;-87
2021/06/09 00:37:05;;;;;;;0.10;0.10;;;;;;;10.54;100.00;93551.31;2087691;28;20036;-85
2021/06/09 00:38:06;;;;;;;0.10;0.10;;;;;;;10.50;100.00;93551.38;2104187;28;20031;-86
2021/06/09 00:39:07;;;;;;;0.00;0.00;;;;;;;10.47;100.00;93552.16;2116456;27;20127;-85
2021/06/09 00:40:10;;;;;;;0.00;0.00;;;;;;;10.51;100.00;93549.44;2113493;28;20027;-87
2021/06/09 00:41:11;;;;;;;0.10;0.10;;;;;;;10.48;100.00;93551.00;2112008;28;20031;-88
2021/06/09 00:42:21;;;;;;;0.00;0.00;;;;;;;10.53;100.00;93553.22;2112817;28;20220;-88
2021/06/09 00:43:23;;;;;;;0.10;0.10;;;;;;;10.46;100.00;93553.31;2100499;28;20063;-86
2021/06/09 00:44:24;;;;;;;0.10;0.10;;;;;;;10.54;100.00;93556.66;2083634;28;20330;-88
2021/06/09 00:45:25;;;;;;;0.10;0.10;;;;;;;10.58;100.00;93550.09;2102940;28;20032;-85
2021/06/09 00:46:34;;;;;;;0.10;0.10;;;;;;;10.69;100.00;93544.59;2110955;28;20028;-87
2021/06/09 00:47:35;;;;;;;0.00;0.00;;;;;;;10.71;100.00;93544.94;2101844;28;20611;-85
2021/06/09 00:48:39;;;;;;;0.15;0.13;;;;;;;10.70;100.00;93545.34;2097360;28;20047;-88
2021/06/09 00:49:40;;;;;;;0.00;0.00;;;;;;;10.68;100.00;93539.66;2104464;28;20020;-86
2021/06/09 00:50:41;;;;;;;0.30;0.10;;;;;;;10.69;100.00;93541.91;2104359;28;20027;-86
2021/06/09 00:51:42;;;;;;;0.08;0.08;;;;;;;10.70;100.00;93554.09;2104506;28;20028;-85
2021/06/09 00:52:42;;;;;;;0.10;0.10;;;;;;;10.70;100.00;93543.41;2095960;28;20016;-88
2021/06/09 00:53:51;;;;;;;0.30;0.10;;;;;;;10.73;100.00;93545.28;2091682;28;20086;-85
2021/06/09 00:54:53;;;;;;;0.10;0.10;;;;;;;10.74;100.00;93541.44;2091864;28;20522;-86
2021/06/09 00:55:56;;;;;;;0.10;0.10;;;;;;;10.76;100.00;93539.13;2095959;28;20033;-87
2021/06/09 00:56:57;;;;;;;0.15;0.10;;;;;;;10.76;100.00;93544.50;2104255;28;20039;-86
2021/06/09 00:57:58;;;;;;;0.10;0.10;;;;;;;10.71;100.00;93541.50;2104219;28;20035;-87
2021/06/09 00:58:59;;;;;;;0.10;0.10;;;;;;;10.77;100.00;93543.31;2095766;28;20024;-86
2021/06/09 01:00:00;;;;;;;0.15;0.15;;;;;;;10.77;100.00;93546.00;2091217;28;20493;-85
2021/06/09 01:01:01;;;;;;;0.10;0.10;;;;;;;10.77;100.00;93545.25;2083322;28;20119;-88
2021/06/09 01:02:02;;;;;;;0.03;0.03;;;;;;;10.71;100.00;93539.59;2083336;28;20496;-87
2021/06/09 01:03:03;;;;;;;0.00;0.00;;;;;;;10.68;100.00;93539.66;2104168;28;20313;-87
2021/06/09 01:04:05;;;;;;;0.03;0.03;;;;;;;10.63;100.00;93545.47;2112972;28;20035;-86
2021/06/09 01:05:06;;;;;;;0.10;0.10;;;;;;;10.64;100.00;93544.28;2103359;28;20117;-85
2021/06/09 01:06:07;;;;;;;0.00;0.00;;;;;;;10.64;100.00;93536.28;2096188;28;20056;-87
2021/06/09 01:07:09;;;;;;;0.10;0.10;;;;;;;10.64;100.00;93541.63;2095345;28;20437;-88
2021/06/09 01:08:12;;;;;;;0.08;0.08;;;;;;;10.66;100.00;93542.72;2091967;28;20598;-84
2021/06/09 01:09:12;;;;;;;0.05;0.05;;;;;;;10.67;100.00;93536.22;2093862;28;20031;-86
2021/06/09 01:10:13;;;;;;;0.08;0.08;;;;;;;10.62;100.00;93546.59;2094758;28;20027;-85
2021/06/09 01:11:22;;;;;;;0.00;0.00;;;;;;;10.75;100.00;93542.19;2095675;28;20028;-87
2021/06/09 01:12:23;;;;;;;0.10;0.10;;;;;;;10.69;100.00;93536.56;2094671;28;20089;-87
2021/06/09 01:13:24;;;;;;;0.10;0.10;;;;;;;10.65;100.00;93541.22;2095734;28;20107;-83
2021/06/09 01:14:25;;;;;;;0.10;0.10;;;;;;;10.66;100.00;93540.03;2094080;28;20047;-86
2021/06/09 01:15:27;;;;;;;0.10;0.10;;;;;;;10.66;100.00;93536.63;2104143;28;20016;-84
2021/06/09 01:16:28;;;;;;;0.10;0.10;;;;;;;10.68;100.00;93545.00;2104406;28;20106;-86
2021/06/09 01:17:29;;;;;;;0.10;0.10;;;;;;;10.72;100.00;93546.47;2095682;28;20028;-87
2021/06/09 01:18:30;;;;;;;0.20;0.10;;;;;;;10.79;100.00;93540.97;2095647;28;20024;-87
2021/06/09 01:19:32;;;;;;;0.10;0.10;;;;;;;10.77;100.00;93546.00;2095598;28;20614;-87
2021/06/09 01:20:33;;;;;;;0.10;0.10;;;;;;;10.65;100.00;93543.88;2095932;28;20020;-85
2021/06/09 01:21:34;;;;;;;0.10;0.10;;;;;;;10.64;100.00;93541.63;2104588;28;20023;-85
2021/06/09 01:22:35;;;;;;;0.10;0.10;;;;;;;10.64;100.00;93537.03;2104440;28;20030;-87
2021/06/09 01:23:37;;;;;;;0.00;0.00;;;;;;;10.59;100.00;93537.50;2112068;28;20027;-89
2021/06/09 01:24:38;;;;;;;0.10;0.10;;;;;;;10.59;100.00;93543.59;2095734;28;20035;-85
2021/06/09 01:25:39;;;;;;;0.00;0.00;;;;;;;10.53;100.00;93539.84;2087393;28;20064;-87
2021/06/09 01:26:40;;;;;;;0.10;0.10;;;;;;;10.61;100.00;93537.84;2096741;28;20528;-88
2021/06/09 01:27:41;;;;;;;0.00;0.00;;;;;;;10.63;100.00;93538.19;2097419;28;20024;-84
2021/06/09 01:28:41;;;;;;;0.05;0.05;;;;;;;10.58;100.00;93544.75;2095666;28;20111;-86
2021/06/09 01:29:42;;;;;;;0.10;0.10;;;;;;;10.56;100.00;93543.63;2095583;28;20024;-86
2021/06/09 01:30:44;;;;;;;0.10;0.10;;;;;;;10.56;100.00;93544.38;2086852;28;20017;-87
2021/06/09 01:31:45;;;;;;;0.20;0.10;;;;;;;10.52;100.00;93541.00;2104675;28;20454;-86
2021/06/09 01:32:47;;;;;;;0.03;0.03;;;;;;;10.50;100.00;93542.59;2112426;28;20027;-87
2021/06/09 01:33:48;;;;;;;0.00;0.00;;;;;;;10.60;100.00;93536.31;2112736;28;20042;-87
2021/06/09 01:34:49;;;;;;;0.10;0.10;;;;;;;10.62;100.00;93536.66;2113159;28;20030;-84
2021/06/09 01:35:53;;;;;;;0.03;0.00;;;;;;;10.59;100.00;93542.84;2112012;28;20311;-88
2021/06/09 01:36:55;;;;;;;0.10;0.10;;;;;;;10.62;100.00;93541.25;2103209;28;20090;-87
2021/06/09 01:37:55;;;;;;;0.10;0.10;;;;;;;10.65;100.00;93535.09;2104223;28;20352;-86
2021/06/09 01:38:56;;;;;;;0.10;0.10;;;;;;;10.63;100.00;93532.09;2103955;28;20027;-86
2021/06/09 01:39:59;;;;;;;0.00;0.00;;;;;;;10.62;100.00;93539.34;2103709;28;20060;-85
2021/06/09 01:41:01;;;;;;;0.10;0.10;;;;;;;10.63;100.00;93540.13;2111870;28;20027;-85
2021/06/09 01:42:02;;;;;;;0.08;0.08;;;;;;;10.66;100.00;93539.28;2095009;28;20024;-88
2021/06/09 01:43:03;;;;;;;0.10;0.10;;;;;;;10.56;100.00;93540.97;2104512;28;20051;-87
2021/06/09 01:44:05;;;;;;;0.10;0.10;;;;;;;10.55;100.00;93542.88;2095331;28;20028;-86
2021/06/09 01:45:08;;;;;;;0.15;0.10;;;;;;;10.48;100.00;93540.31;2092473;28;20091;-88
2021/06/09 01:46:08;;;;;;;0.10;0.10;;;;;;;10.48;100.00;93536.88;2111828;28;20285;-87
2021/06/09 01:47:09;;;;;;;0.00;0.00;;;;;;;10.48;100.00;93542.22;2113031;28;20379;-89
2021/06/09 01:48:11;;;;;;;0.10;0.10;;;;;;;10.46;100.00;93541.88;2110657;28;20023;-86
2021/06/09 01:49:13;;;;;;;0.10;0.10;;;;;;;10.47;100.00;93538.81;2095116;28;20286;-86
2021/06/09 01:50:16;;;;;;;0.10;0.10;;;;;;;10.47;100.00;93538.81;2087654;28;20291;-88
2021/06/09 01:51:17;;;;;;;0.10;0.10;;;;;;;10.43;100.00;93535.41;2103961;28;20028;-85
2021/06/09 01:52:19;;;;;;;0.10;0.10;;;;;;;10.39;100.00;93540.06;2112069;28;20116;-89
2021/06/09 01:53:20;;;;;;;0.10;0.10;;;;;;;10.40;100.00;93536.22;2096060;28;20044;-85
2021/06/09 01:54:22;;;;;;;0.10;0.10;;;;;;;10.43;100.00;93529.31;2095030;28;20030;-86
2021/06/09 01:55:25;;;;;;;0.10;0.10;;;;;;;10.36;100.00;93538.22;2095654;28;20480;-89
2021/06/09 01:56:25;;;;;;;0.10;0.10;;;;;;;10.34;100.00;93540.50;2093285;28;20021;-86
2021/06/09 01:57:26;;;;;;;0.10;0.10;;;;;;;10.34;100.00;93532.50;2095564;28;20410;-88
2021/06/09 01:58:27;;;;;;;0.08;0.08;;;;;;;10.29;100.00;93535.63;2093554;28;20032;-87
2021/06/09 01:59:31;;;;;;;0.10;0.10;;;;;;;10.31;100.00;93534.06;2103342;28;20059;-85
2021/06/09 02:00:36;;;;;;;0.10;0.10;;;;;;;10.23;100.00;93537.22;2103418;28;20503;-87
2021/06/09 02:01:37;;;;;;;0.38;0.10;;;;;;;10.22;100.00;93541.03;2092781;28;20083;-86
2021/06/09 02:02:38;;;;;;;0.10;0.10;;;;;;;10.26;100.00;93539.09;2098857;28;20030;-88
2021/06/09 02:03:39;;;;;;;0.10;0.10;;;;;;;10.22;100.00;93530.34;2111340;28;20028;-87
2021/06/09 02:04:41;;;;;;;0.10;0.10;;;;;;;10.19;100.00;93536.50;2091372;28;20248;-85
2021/06/09 02:05:43;;;;;;;0.10;0.10;;;;;;;10.17;100.00;93531.56;2094956;28;20047;-85
2021/06/09 02:06:45;;;;;;;0.10;0.10;;;;;;;10.15;100.00;93539.22;2102738;28;20020;-84
2021/06/09 02:07:46;;;;;;;0.10;0.10;;;;;;;10.05;100.00;93532.88;2104087;28;20015;-86
2021/06/09 02:08:46;;;;;;;0.10;0.10;;;;;;;10.09;100.00;93530.88;2095304;28;20309;-87
2021/06/09 02:09:47;;;;;;;0.10;0.10;;;;;;;10.11;100.00;93535.09;2103641;28;20023;-86
2021/06/09 02:10:48;;;;;;;0.10;0.10;;;;;;;10.09;100.00;93538.13;2112274;28;20027;-85
2021/06/09 02:11:50;;;;;;;0.10;0.10;;;;;;;10.04;100.00;93527.91;2103837;28;20119;-85
2021/06/09 02:12:56;;;;;;;0.10;0.10;;;;;;;9.92;100.00;93534.56;2102878;28;20028;-86
2021/06/09 02:13:58;;;;;;;0.20;0.20;;;;;;;9.94;100.00;93534.91;2096238;28;20033;-88
2021/06/09 02:14:59;;;;;;;0.10;0.10;;;;;;;9.96;100.00;93535.25;2101903;28;20062;-86
2021/06/09 02:16:01;;;;;;;0.10;0.10;;;;;;;9.96;100.00;93535.25;2103575;28;20031;-84
2021/06/09 02:17:10;;;;;;;0.10;0.10;;;;;;;9.99;100.00;93531.78;2103722;28;20492;-87
2021/06/09 02:19:14;;;;;;;0.10;0.10;;;;;;;9.94;100.00;93523.47;2111987;28;20031;-88
2021/06/09 02:20:15;;;;;;;0.10;0.10;;;;;;;9.89;100.00;93531.94;2095236;28;20032;-86
2021/06/09 02:21:15;;;;;;;0.10;0.10;;;;;;;9.96;100.00;93529.16;2095215;28;20024;-87
2021/06/09 02:22:16;;;;;;;0.10;0.10;;;;;;;9.91;100.00;93527.69;2094697;28;20048;-87
2021/06/09 02:23:22;;;;;;;0.10;0.10;;;;;;;9.83;100.00;93532.38;2103072;28;20024;-86
2021/06/09 02:24:23;;;;;;;0.10;0.10;;;;;;;9.84;100.00;93533.13;2108983;28;20085;-83
2021/06/09 02:25:24;;;;;;;0.10;0.10;;;;;;;9.82;100.00;93535.44;2116068;28;20027;-87
2021/06/09 02:26:26;;;;;;;0.10;0.10;;;;;;;9.79;100.00;93534.34;2102085;28;20257;-84
2021/06/09 02:27:26;;;;;;;0.10;0.10;;;;;;;9.79;100.00;93533.59;2095467;28;20405;-89
2021/06/09 02:28:32;;;;;;;0.10;0.10;;;;;;;9.80;100.00;93532.41;2103750;28;20024;-88
2021/06/09 02:29:34;;;;;;;0.10;0.10;;;;;;;9.82;100.00;93535.44;2103670;28;20032;-90
2021/06/09 02:30:35;;;;;;;0.10;0.10;;;;;;;9.81;100.00;93533.94;2095399;28;20131;-85
2021/06/09 02:31:38;;;;;;;0.10;0.10;;;;;;;9.81;100.00;93536.59;2086787;28;20460;-87
2021/06/09 02:32:41;;;;;;;0.35;0.10;;;;;;;9.77;100.00;93533.22;2086690;28;20504;-88
2021/06/09 02:33:42;;;;;;;0.00;0.00;;;;;;;9.75;100.00;93535.53;2096125;28;20489;-86
2021/06/09 02:34:43;;;;;;;0.10;0.10;;;;;;;9.74;100.00;93534.75;2103671;28;20055;-87
2021/06/09 02:35:44;;;;;;;0.22;0.10;;;;;;;9.73;100.00;93529.81;2094775;28;20025;-87
2021/06/09 02:36:49;;;;;;;0.10;0.10;;;;;;;9.74;100.00;93529.41;2086427;28;20470;-86
2021/06/09 02:37:54;;;;;;;0.10;0.10;;;;;;;9.66;100.00;93525.34;2102956;28;20028;-87
2021/06/09 02:38:57;;;;;;;0.10;0.10;;;;;;;9.69;100.00;93529.84;2102956;28;20386;-87
2021/06/09 02:39:57;;;;;;;0.10;0.10;;;;;;;9.69;100.00;93531.78;2095683;28;20082;-88
2021/06/09 02:40:58;;;;;;;0.10;0.10;;;;;;;9.73;100.00;93533.25;2102843;28;20027;-87
2021/06/09 02:41:59;;;;;;;0.10;0.10;;;;;;;9.86;100.00;93530.81;2103477;28;20058;-86
2021/06/09 02:43:01;;;;;;;0.10;0.10;;;;;;;9.69;100.00;93529.84;2094959;28;20516;-87
2021/06/09 02:44:05;;;;;;;0.05;0.05;;;;;;;9.74;100.00;93534.75;2095576;28;20097;-86
2021/06/09 02:45:10;;;;;;;0.10;0.10;;;;;;;9.67;100.00;93537.53;2090733;28;20107;-87
2021/06/09 02:46:17;;;;;;;0.10;0.10;;;;;;;9.69;100.00;93529.84;2091219;28;20571;-87
2021/06/09 02:47:18;;;;;;;0.10;0.10;;;;;;;9.60;100.00;93532.25;2103982;28;20038;-86
2021/06/09 02:48:24;;;;;;;0.10;0.10;;;;;;;9.54;100.00;93542.63;2094405;28;20028;-87
2021/06/09 02:49:28;;;;;;;0.20;0.10;;;;;;;9.58;100.00;93534.59;2096727;28;20024;-87
2021/06/09 02:50:30;;;;;;;0.10;0.10;;;;;;;9.56;100.00;93534.22;2104186;28;20024;-87
2021/06/09 02:51:47;;;;;;;0.10;0.10;;;;;;;9.57;100.00;93531.16;2103913;28;20024;-86
2021/06/09 02:53:11;;;;;;;0.25;0.10;;;;;;;9.56;100.00;93536.88;2102699;28;20028;-85
2021/06/09 02:54:33;;;;;;;0.15;0.10;;;;;;;9.52;100.00;93536.16;2093060;28;20021;-86
2021/06/09 02:55:48;;;;;;;0.10;0.10;;;;;;;9.52;100.00;93534.25;2097762;28;20024;-87
2021/06/09 02:57:01;;;;;;;0.13;0.13;;;;;;;9.57;100.00;93538.41;2099064;28;20071;-87
2021/06/09 02:58:16;;;;;;;0.10;0.10;;;;;;;9.61;100.00;93530.34;2096761;28;20074;-87
2021/06/09 02:59:16;;;;;;;0.08;0.08;;;;;;;9.58;100.00;93534.59;2090012;28;20036;-88
2021/06/09 03:00:22;;;;;;;0.20;0.10;;;;;;;9.52;100.00;93526.22;2103719;28;20036;-86
2021/06/09 03:01:28;;;;;;;0.10;0.10;;;;;;;9.48;100.00;93527.44;2112009;28;20027;-88
2021/06/09 03:02:38;;;;;;;0.10;0.10;;;;;;;9.45;100.00;93522.91;2110123;28;20031;-86
2021/06/09 03:03:47;;;;;;;0.40;0.10;;;;;;;9.45;100.00;93528.25;2103189;28;20530;-86
2021/06/09 03:04:50;;;;;;;0.10;0.10;;;;;;;9.45;100.00;93529.00;2099747;28;20586;-85
2021/06/09 03:06:08;;;;;;;0.10;0.10;;;;;;;9.46;100.00;93538.50;2099003;28;20052;-84
2021/06/09 03:07:18;;;;;;;0.10;0.10;;;;;;;9.44;100.00;93535.50;2097216;28;20036;-85
2021/06/09 03:08:37;;;;;;;0.08;0.08;;;;;;;9.49;100.00;93540.41;2096957;28;20033;-85
2021/06/09 03:09:41;;;;;;;0.10;0.10;;;;;;;9.56;100.00;93542.97;2101855;28;20789;-84
2021/06/09 03:10:52;;;;;;;0.10;0.10;;;;;;;9.56;100.00;93536.88;2097150;28;20024;-86
2021/06/09 03:12:29;;;;;;;0.10;0.10;;;;;;;9.66;100.00;93543.25;2099467;28;20381;-84
2021/06/09 03:14:02;;;;;;;0.10;0.10;;;;;;;9.63;100.00;93536.06;2102190;28;20119;-87
2021/06/09 03:15:12;;;;;;;0.10;0.10;;;;;;;9.59;100.00;93531.50;2105380;28;20024;-88
2021/06/09 03:16:19;;;;;;;0.10;0.10;;;;;;;9.67;100.00;93539.44;2104948;28;20129;-85
2021/06/09 03:17:26;;;;;;;0.10;0.10;;;;;;;9.70;100.00;93538.63;2097736;28;20020;-85
2021/06/09 03:18:35;;;;;;;0.10;0.10;;;;;;;9.71;100.00;93529.47;2104396;28;20118;-88
2021/06/09 03:20:06;;;;;;;0.10;0.10;;;;;;;9.69;100.00;93526.44;2101857;28;20114;-88
2021/06/09 03:21:14;;;;;;;0.10;0.10;;;;;;;9.67;100.00;93528.75;2098337;28;20162;-86
2021/06/09 03:22:51;;;;;;;0.10;0.10;;;;;;;9.70;100.00;93528.72;2105279;28;20032;-85
2021/06/09 03:24:12;;;;;;;0.10;0.10;;;;;;;9.72;100.00;93528.31;2104997;28;20016;-87
2021/06/09 03:25:20;;;;;;;0.10;0.10;;;;;;;9.64;100.00;93530.31;2108019;28;20024;-87
2021/06/09 03:26:39;;;;;;;0.10;0.10;;;;;;;9.70;100.00;93527.94;2111868;28;20042;-86
2021/06/09 03:27:53;;;;;;;0.10;0.10;;;;;;;9.69;100.00;93529.09;2106782;28;20342;-85
2021/06/09 03:29:01;;;;;;;0.20;0.10;;;;;;;9.68;100.00;93517.69;2098036;28;20043;-85
2021/06/09 03:30:09;;;;;;;0.10;0.10;;;;;;;9.65;100.00;93523.06;2097354;28;20477;-88
2021/06/09 03:31:18;;;;;;;0.10;0.10;;;;;;;9.67;100.00;93528.75;2102986;28;20419;-85
2021/06/09 03:32:26;;;;;;;0.10;0.10;;;;;;;9.71;100.00;93527.56;2093955;28;20492;-86
2021/06/09 03:33:30;;;;;;;0.15;0.10;;;;;;;9.72;100.00;93515.72;2101733;28;20032;-85
2021/06/09 03:34:53;;;;;;;0.10;0.10;;;;;;;9.72;100.00;93522.97;2104357;28;20020;-85
2021/06/09 03:36:06;;;;;;;0.10;0.10;;;;;;;9.75;100.00;93528.28;2106706;28;20031;-87
2021/06/09 03:37:09;;;;;;;0.10;0.10;;;;;;;9.77;100.00;93522.53;2105154;28;20074;-84
2021/06/09 03:38:16;;;;;;;0.10;0.10;;;;;;;9.79;100.00;93522.91;2096603;28;20174;-86
2021/06/09 03:39:21;;;;;;;0.10;0.10;;;;;;;9.77;100.00;93517.94;2088511;28;20028;-88
2021/06/09 03:40:26;;;;;;;0.10;0.10;;;;;;;9.79;100.00;93521.00;2101501;28;20441;-86
2021/06/09 03:41:34;;;;;;;0.10;0.10;;;;;;;9.79;100.00;93520.25;2112949;28;20444;-85
2021/06/09 03:42:38;;;;;;;0.10;0.10;;;;;;;9.84;100.00;93514.44;2105780;28;20031;-86
2021/06/09 03:43:44;;;;;;;0.10;0.10;;;;;;;9.81;100.00;93518.66;2103889;28;20059;-84
2021/06/09 03:44:49;;;;;;;0.10;0.10;;;;;;;9.84;100.00;93517.13;2096661;28;20074;-86
2021/06/09 03:45:52;;;;;;;0.10;0.10;;;;;;;9.82;100.00;93520.16;2104400;28;20030;-85
2021/06/09 03:46:55;;;;;;;0.10;0.10;;;;;;;9.87;100.00;93512.88;2112005;28;20012;-85
2021/06/09 03:47:57;;;;;;;0.10;0.10;;;;;;;9.91;100.00;93518.94;2096383;28;20115;-86
2021/06/09 03:48:59;;;;;;;0.10;0.10;;;;;;;9.95;100.00;93512.38;2096312;28;20029;-87
2021/06/09 03:50:01;;;;;;;0.10;0.10;;;;;;;10.06;100.00;93515.69;2096520;28;20028;-86
2021/06/09 03:51:04;;;;;;;0.10;0.10;;;;;;;10.04;100.00;93519.91;2096623;28;20024;-85
2021/06/09 03:52:05;;;;;;;0.10;0.10;;;;;;;10.05;100.00;93522.19;2091444;28;20276;-89
2021/06/09 03:53:06;;;;;;;0.10;0.10;;;;;;;10.08;100.00;93512.59;2100157;28;20044;-83
2021/06/09 03:54:09;;;;;;;0.10;0.10;;;;;;;10.12;100.00;93518.66;2104370;28;20020;-84
2021/06/09 03:55:10;;;;;;;0.05;0.05;;;;;;;10.09;100.00;93522.88;2104097;28;20387;-88
2021/06/09 03:56:12;;;;;;;0.10;0.10;;;;;;;10.08;100.00;93524.03;2103536;28;20089;-86
2021/06/09 03:57:14;;;;;;;0.10;0.10;;;;;;;10.12;100.00;93515.22;2104578;28;20024;-86
2021/06/09 03:58:17;;;;;;;0.10;0.10;;;;;;;10.12;100.00;93513.31;2096235;28;20641;-86
2021/06/09 03:59:20;;;;;;;0.30;0.20;;;;;;;10.16;100.00;93521.28;2088229;28;20032;-87
2021/06/09 04:00:23;;;;;;;0.10;0.10;;;;;;;10.18;100.00;93521.63;2104722;28;20016;-86
2021/06/09 04:01:35;;;;;;;0.28;0.10;;;;;;;10.24;100.00;93518.13;2106439;28;20496;-88
2021/06/09 04:02:38;;;;;;;0.10;0.10;;;;;;;10.28;100.00;93524.19;2112352;28;20069;-87
2021/06/09 04:03:41;;;;;;;0.30;0.15;;;;;;;10.30;100.00;93523.78;2096728;28;20087;-87
2021/06/09 04:04:43;;;;;;;0.32;0.10;;;;;;;10.27;100.00;93524.56;2096331;28;20575;-86
2021/06/09 04:05:45;;;;;;;0.10;0.10;;;;;;;10.31;100.00;93517.25;2087832;28;20157;-86
2021/06/09 04:06:49;;;;;;;0.10;0.10;;;;;;;10.34;100.00;93517.22;2091150;28;20119;-88
2021/06/09 04:07:51;;;;;;;0.10;0.10;;;;;;;10.42;100.00;93517.13;2100345;28;20024;-86
2021/06/09 04:08:55;;;;;;;0.10;0.10;;;;;;;10.48;100.00;93520.84;2104755;28;20138;-85
2021/06/09 04:09:59;;;;;;;0.10;0.10;;;;;;;10.52;100.00;93516.97;2094794;28;20504;-85
2021/06/09 04:11:00;;;;;;;0.10;0.10;;;;;;;10.52;100.00;93514.28;2096838;28;20382;-86
2021/06/09 04:12:04;;;;;;;0.10;0.10;;;;;;;10.54;100.00;93520.00;2093379;28;20119;-86
2021/06/09 04:13:05;;;;;;;0.10;0.10;;;;;;;10.62;100.00;93522.53;2096119;28;20110;-86
2021/06/09 04:14:09;;;;;;;0.10;0.10;;;;;;;10.68;100.00;93523.63;2095297;28;20752;-87
2021/06/09 04:15:11;;;;;;;0.10;0.10;;;;;;;10.74;100.00;93528.06;2096716;28;20036;-86
2021/06/09 04:16:13;;;;;;;0.10;0.10;;;;;;;10.79;100.00;93524.19;2104705;28;20039;-88
2021/06/09 04:17:22;;;;;;;0.10;0.10;;;;;;;10.81;100.00;93519.94;2105094;28;20020;-86
2021/06/09 04:18:24;;;;;;;0.10;0.10;;;;;;;10.86;100.00;93516.06;2111891;28;20518;-83
2021/06/09 04:19:27;;;;;;;0.20;0.10;;;;;;;10.91;100.00;93520.19;2104080;28;20513;-87
2021/06/09 04:20:30;;;;;;;0.10;0.10;;;;;;;11.09;100.00;93517.97;2105003;28;20024;-86
2021/06/09 04:21:31;;;;;;;0.10;0.10;;;;;;;11.15;100.00;93518.25;2112869;28;20023;-86
2021/06/09 04:22:33;;;;;;;0.10;0.10;;;;;;;11.12;100.00;93514.47;2114025;28;20354;-87
2021/06/09 04:23:34;;;;;;;0.10;0.10;;;;;;;11.16;100.00;93523.19;2112775;28;20028;-86
2021/06/09 04:24:40;;;;;;;0.10;0.10;;;;;;;11.18;100.00;93518.19;2095308;28;20032;-86
2021/06/09 04:25:41;;;;;;;0.10;0.10;;;;;;;11.20;100.00;93523.16;2097631;28;20032;-88
2021/06/09 04:26:42;;;;;;;0.10;0.10;;;;;;;11.19;100.00;93522.38;2091857;28;20031;-83
2021/06/09 04:27:44;;;;;;;0.10;0.10;;;;;;;11.25;100.00;93526.09;2084294;28;20029;-84
2021/06/09 04:28:45;;;;;;;0.10;0.10;;;;;;;11.28;100.00;93530.63;2104051;28;20028;-86
2021/06/09 04:29:49;;;;;;;0.10;0.10;;;;;;;11.35;100.00;93527.81;2112872;28;20062;-84
2021/06/09 04:30:52;;;;;;;0.10;0.10;;;;;;;11.35;100.00;93527.81;2104457;28;20024;-85
2021/06/09 04:31:52;;;;;;;0.10;0.10;;;;;;;11.39;100.00;93527.00;2096552;28;20412;-85
2021/06/09 04:32:59;;;;;;;0.10;0.10;;;;;;;11.44;100.00;93529.97;2087628;28;20112;-87
2021/06/09 04:34:00;;;;;;;0.10;0.10;;;;;;;11.50;100.00;93531.00;2098990;28;20480;-85
2021/06/09 04:35:01;;;;;;;0.10;0.10;;;;;;;11.52;100.00;93525.22;2101526;28;20504;-86
2021/06/09 04:36:02;;;;;;;0.20;0.20;;;;;;;11.56;100.00;93515.97;2095807;28;20020;-85
2021/06/09 04:37:03;;;;;;;0.10;0.10;;;;;;;11.57;100.00;93525.50;2095163;28;20389;-87
2021/06/09 04:38:05;;;;;;;0.10;0.10;;;;;;;11.61;100.00;93520.09;2088208;28;20033;-85
2021/06/09 04:39:06;;;;;;;0.22;0.10;;;;;;;11.64;100.00;93521.94;2099718;28;20469;-85
2021/06/09 04:40:13;;;;;;;0.43;0.20;;;;;;;11.67;100.00;93523.03;2109083;28;20031;-84
2021/06/09 04:41:14;;;;;;;0.15;0.10;;;;;;;11.71;100.00;93523.72;2097062;28;20477;-86
2021/06/09 04:42:16;;;;;;;0.10;0.10;;;;;;;11.75;100.00;93527.09;2094671;28;20111;-85
2021/06/09 04:43:20;;;;;;;0.10;0.10;;;;;;;11.81;100.00;93526.19;2094288;28;20054;-83
2021/06/09 04:44:21;;;;;;;0.10;0.10;;;;;;;11.83;100.00;93533.84;2088692;28;20151;-86
2021/06/09 04:45:24;;;;;;;0.10;0.10;;;;;;;11.87;100.00;93528.41;2096250;28;20032;-87
2021/06/09 04:46:25;;;;;;;0.10;0.10;;;;;;;11.90;100.00;93528.34;2103486;28;20028;-85
2021/06/09 04:47:29;;;;;;;0.10;0.10;;;;;;;11.97;100.00;93522.09;2103547;28;20020;-86
2021/06/09 04:48:30;;;;;;;0.17;0.17;;;;;;;11.98;100.00;93523.59;2103466;28;20418;-86
2021/06/09 04:49:33;;;;;;;0.10;0.10;;;;;;;12.00;100.00;93524.69;2103738;28;20024;-86
2021/06/09 04:50:34;;;;;;;0.10;0.10;;;;;;;12.04;100.00;93520.03;2104601;28;20549;-87
2021/06/09 04:51:37;;;;;;;0.10;0.10;;;;;;;12.07;100.00;93529.13;2111821;28;20116;-87
2021/06/09 04:52:37;;;;;;;0.10;0.10;;;;;;;12.11;100.00;93527.16;2112952;28;20130;-83
2021/06/09 04:53:38;;;;;;;0.10;0.10;;;;;;;12.12;100.00;93534.03;2112551;28;20536;-85
2021/06/09 04:54:40;;;;;;;0.10;0.10;;;;;;;12.03;100.00;93534.59;2104042;28;20115;-88
2021/06/09 04:55:46;;;;;;;0.10;0.10;;;;;;;12.08;100.00;93538.72;2095595;28;20028;-88
2021/06/09 04:56:47;;;;;;;0.10;0.10;;;;;;;12.11;100.00;93537.84;2104993;28;20016;-83
2021/06/09 04:57:47;;;;;;;0.10;0.10;;;;;;;12.20;100.00;93539.97;2112176;28;20053;-84